createdAt,value
2022-12-12T00:00:10.440Z,20.45
2022-12-12T00:03:05.720Z,14.88
2022-12-12T00:05:38.770Z,15.30
2022-12-12T00:08:11.647Z,14.13
2022-12-12T00:10:44.225Z,16.30
2022-12-12T00:13:17.091Z,12.70
2022-12-12T00:15:49.808Z,13.48
2022-12-12T00:18:23.285Z,13.45
2022-12-12T00:20:56.454Z,14.65
2022-12-12T00:23:29.384Z,14.45
2022-12-12T00:26:03.795Z,13.30
2022-12-12T00:28:36.739Z,12.15
2022-12-12T00:31:09.437Z,21.33
2022-12-12T00:33:43.908Z,13.07
2022-12-12T00:36:17.252Z,14.30
2022-12-12T00:38:50.517Z,19.95
2022-12-12T00:41:23.330Z,19.50
2022-12-12T00:43:56.202Z,22.55
2022-12-12T00:46:28.696Z,13.93
2022-12-12T00:49:01.636Z,16.40
2022-12-12T00:51:36.498Z,17.48
2022-12-12T00:54:10.090Z,18.00
2022-12-12T00:56:42.608Z,22.17
2022-12-12T00:59:15.626Z,14.90
2022-12-12T01:01:48.105Z,19.73
2022-12-12T01:04:21.674Z,13.00
2022-12-12T01:06:54.480Z,14.02
2022-12-12T01:09:27.437Z,13.07
2022-12-12T01:12:00.614Z,13.65
2022-12-12T01:14:33.522Z,22.17
2022-12-12T01:17:06.109Z,14.48
2022-12-12T01:19:39.173Z,15.07
2022-12-12T01:22:11.816Z,12.38
2022-12-12T01:24:44.712Z,21.17
2022-12-12T01:27:17.833Z,15.57
2022-12-12T01:29:50.836Z,14.25
2022-12-12T01:32:23.400Z,19.98
2022-12-12T01:34:56.295Z,15.18
2022-12-12T01:37:28.771Z,12.70
2022-12-12T01:40:01.895Z,18.85
2022-12-12T01:42:34.697Z,17.70
2022-12-12T01:45:08.320Z,12.40
2022-12-12T01:47:40.816Z,14.55
2022-12-12T01:50:13.742Z,22.35
2022-12-12T01:52:48.184Z,14.30
2022-12-12T01:55:22.905Z,17.95
2022-12-12T01:57:55.800Z,17.00
2022-12-12T02:00:28.928Z,12.60
2022-12-12T02:03:01.497Z,17.52
2022-12-12T02:05:36.848Z,11.05
2022-12-12T02:08:10.103Z,13.95
2022-12-12T02:10:44.462Z,15.40
2022-12-12T02:13:22.693Z,17.95
2022-12-12T02:16:10.331Z,18.38
2022-12-12T02:18:49.655Z,20.27
2022-12-12T02:21:31.656Z,19.17
2022-12-12T02:24:24.334Z,16.85
2022-12-12T02:26:58.807Z,15.57
2022-12-12T02:29:40.351Z,15.95
2022-12-12T02:32:31.991Z,23.65
2022-12-12T02:35:25.913Z,20.40
2022-12-12T02:38:01.797Z,18.85
2022-12-12T02:40:49.284Z,12.77
2022-12-12T02:43:22.115Z,19.40
2022-12-12T02:46:14.923Z,15.20
2022-12-12T02:48:54.958Z,23.42
2022-12-12T02:51:28.261Z,17.85
2022-12-12T02:54:01.504Z,14.38
2022-12-12T02:56:42.961Z,20.15
2022-12-12T02:59:26.794Z,20.42
2022-12-12T03:02:08.518Z,16.13
2022-12-12T03:05:03.254Z,21.65
2022-12-12T03:07:47.629Z,15.93
2022-12-12T03:10:41.702Z,14.27
2022-12-12T03:13:27.896Z,12.63
2022-12-12T03:16:03.883Z,17.80
2022-12-12T03:18:43.309Z,21.02
2022-12-12T03:21:19.599Z,16.20
2022-12-12T03:23:54.909Z,17.38
2022-12-12T03:26:29.402Z,15.15
2022-12-12T03:29:10.298Z,16.15
2022-12-12T03:31:45.837Z,12.93
2022-12-12T03:34:23.579Z,16.73
2022-12-12T03:36:57.769Z,19.27
2022-12-12T03:39:40.737Z,13.77
2022-12-12T03:42:24.206Z,17.88
2022-12-12T03:45:12.583Z,22.48
2022-12-12T03:47:54.294Z,15.05
2022-12-12T03:50:30.623Z,22.40
2022-12-12T03:53:07.685Z,19.33
2022-12-12T03:55:43.873Z,17.08
2022-12-12T03:58:40.747Z,16.58
2022-12-12T04:01:14.086Z,19.83
2022-12-12T04:03:52.911Z,15.73
2022-12-12T04:06:32.476Z,14.23
2022-12-12T04:09:26.586Z,17.85
2022-12-12T04:12:36.677Z,13.52
2022-12-12T04:15:27.987Z,14.63
2022-12-12T04:18:15.767Z,18.73
2022-12-12T04:21:16.955Z,17.55
2022-12-12T04:24:08.244Z,18.73
2022-12-12T04:26:49.728Z,19.80
2022-12-12T04:29:22.270Z,22.33
2022-12-12T04:32:01.336Z,18.85
2022-12-12T04:34:33.818Z,24.52
2022-12-12T04:37:08.187Z,20.25
2022-12-12T04:39:41.724Z,27.33
2022-12-12T04:42:17.464Z,15.50
2022-12-12T04:44:51.280Z,18.58
2022-12-12T04:47:24.377Z,14.25
2022-12-12T04:49:58.046Z,15.65
2022-12-12T04:52:31.881Z,18.88
2022-12-12T04:55:14.422Z,19.58
2022-12-12T04:57:51.765Z,22.17
2022-12-12T05:00:25.446Z,18.65
2022-12-12T05:03:02.215Z,22.00
2022-12-12T05:05:43.804Z,17.77
2022-12-12T05:08:20.114Z,22.70
2022-12-12T05:10:54.614Z,19.38
2022-12-12T05:13:32.297Z,14.52
2022-12-12T05:16:10.704Z,22.05
2022-12-12T05:18:44.059Z,22.48
2022-12-12T05:21:16.951Z,17.08
2022-12-12T05:23:49.820Z,19.63
2022-12-12T05:26:24.159Z,23.33
2022-12-12T05:28:59.899Z,18.30
2022-12-12T05:31:36.365Z,15.52
2022-12-12T05:34:10.562Z,25.23
2022-12-12T05:36:43.087Z,20.02
2022-12-12T05:39:16.298Z,19.88
2022-12-12T05:41:48.818Z,16.52
2022-12-12T05:44:21.826Z,19.58
2022-12-12T05:46:54.342Z,26.33
2022-12-12T05:49:27.367Z,15.73
2022-12-12T05:51:59.880Z,15.15
2022-12-12T05:54:33.306Z,15.80
2022-12-12T05:57:05.780Z,20.70
2022-12-12T05:59:40.284Z,16.25
2022-12-12T06:02:12.918Z,13.27
2022-12-12T06:04:46.031Z,17.48
2022-12-12T06:07:18.717Z,23.85
2022-12-12T06:09:51.647Z,28.48
2022-12-12T06:12:24.271Z,16.30
2022-12-12T06:14:57.139Z,19.30
2022-12-12T06:17:33.149Z,22.92
2022-12-12T06:20:06.871Z,19.45
2022-12-12T06:22:39.552Z,16.65
2022-12-12T06:25:13.188Z,19.35
2022-12-12T06:27:45.975Z,22.98
2022-12-12T06:30:19.201Z,13.00
2022-12-12T06:32:52.332Z,12.55
2022-12-12T06:35:25.483Z,15.52
2022-12-12T06:37:58.148Z,15.65
2022-12-12T06:40:31.134Z,18.13
2022-12-12T06:43:03.661Z,15.20
2022-12-12T06:45:36.570Z,12.93
2022-12-12T06:48:09.091Z,21.30
2022-12-12T06:50:42.650Z,21.02
2022-12-12T06:53:15.261Z,20.40
2022-12-12T06:55:48.167Z,15.63
2022-12-12T06:58:20.662Z,18.33
2022-12-12T07:00:54.152Z,20.55
2022-12-12T07:03:26.708Z,21.30
2022-12-12T07:05:59.970Z,23.67
2022-12-12T07:08:33.932Z,17.10
2022-12-12T07:11:17.947Z,27.83
2022-12-12T07:13:51.117Z,22.88
2022-12-12T07:16:24.240Z,22.13
2022-12-12T07:18:57.080Z,20.40
2022-12-12T07:21:29.934Z,29.88
2022-12-12T07:24:02.447Z,18.35
2022-12-12T07:26:35.526Z,20.90
2022-12-12T07:29:08.037Z,17.65
2022-12-12T07:31:41.352Z,14.25
2022-12-12T07:34:13.911Z,14.63
2022-12-12T07:36:46.852Z,12.07
2022-12-12T07:39:21.123Z,16.92
2022-12-12T07:41:54.571Z,18.20
2022-12-12T07:44:27.111Z,12.85
2022-12-12T07:47:00.181Z,13.13
2022-12-12T07:49:33.184Z,16.73
2022-12-12T07:52:06.207Z,15.45
2022-12-12T07:54:38.801Z,13.13
2022-12-12T07:57:11.707Z,16.42
2022-12-12T07:59:44.327Z,17.17
2022-12-12T08:02:17.251Z,15.48
2022-12-12T08:04:49.884Z,21.98
2022-12-12T08:07:22.817Z,19.30
2022-12-12T08:09:55.411Z,12.93
2022-12-12T08:12:31.970Z,18.40
2022-12-12T08:15:04.659Z,20.33
2022-12-12T08:17:37.536Z,14.68
2022-12-12T08:20:10.472Z,27.55
2022-12-12T08:22:44.064Z,18.42
2022-12-12T08:25:16.558Z,18.10
2022-12-12T08:27:49.859Z,16.00
2022-12-12T08:30:22.385Z,22.23
2022-12-12T08:32:55.374Z,15.75
2022-12-12T08:35:29.641Z,10.63
2022-12-12T08:38:03.518Z,13.50
2022-12-12T08:40:36.299Z,18.42
2022-12-12T08:43:09.589Z,22.27
2022-12-12T08:45:42.219Z,14.55
2022-12-12T08:48:15.156Z,13.05
2022-12-12T08:50:47.717Z,17.50
2022-12-12T08:53:20.599Z,14.55
2022-12-12T08:55:53.346Z,15.50
2022-12-12T08:58:26.464Z,14.85
2022-12-12T09:00:58.942Z,18.63
2022-12-12T09:03:31.852Z,14.85
2022-12-12T09:06:05.583Z,13.98
2022-12-12T09:08:38.832Z,16.23
2022-12-12T09:11:11.791Z,19.20
2022-12-12T09:13:44.765Z,16.40
2022-12-12T09:16:17.358Z,8.38
2022-12-12T09:18:50.300Z,27.15
2022-12-12T09:21:23.334Z,12.02
2022-12-12T09:23:56.303Z,13.82
2022-12-12T09:26:28.931Z,15.48
2022-12-12T09:29:01.787Z,10.77
2022-12-12T09:31:34.364Z,20.00
2022-12-12T09:34:07.250Z,14.13
2022-12-12T09:36:39.701Z,15.35
2022-12-12T09:39:12.637Z,18.65
2022-12-12T09:41:45.735Z,8.63
2022-12-12T09:44:19.118Z,9.63
2022-12-12T09:46:56.316Z,11.48
2022-12-12T09:49:55.203Z,10.10
2022-12-12T09:52:32.561Z,11.27
2022-12-12T09:55:23.314Z,12.23
2022-12-12T09:58:09.162Z,12.02
2022-12-12T10:00:47.661Z,12.35
2022-12-12T10:03:26.439Z,9.90
2022-12-12T10:09:23.405Z,9.23
2022-12-12T10:11:57.134Z,16.05
2022-12-12T10:14:35.629Z,16.90
2022-12-12T10:17:11.946Z,10.35
2022-12-12T10:19:56.176Z,19.63
2022-12-12T10:22:40.920Z,16.55
2022-12-12T10:25:21.395Z,15.27
2022-12-12T10:27:58.096Z,13.20
2022-12-12T10:30:32.212Z,12.02
2022-12-12T10:33:05.137Z,9.00
2022-12-12T10:35:50.458Z,12.38
2022-12-12T10:38:29.836Z,10.43
2022-12-12T10:41:12.617Z,18.23
2022-12-12T10:43:45.555Z,28.60
2022-12-12T10:46:41.475Z,10.90
2022-12-12T10:49:16.439Z,12.02
2022-12-12T10:51:49.703Z,13.32
2022-12-12T10:54:25.059Z,10.90
2022-12-12T10:57:09.524Z,6.53
2022-12-12T10:59:49.885Z,9.65
2022-12-12T11:02:25.251Z,10.90
2022-12-12T11:05:17.110Z,11.55
2022-12-12T11:07:58.334Z,12.85
2022-12-12T11:10:35.529Z,13.07
2022-12-12T11:13:11.087Z,11.32
2022-12-12T11:15:50.136Z,19.15
2022-12-12T11:18:23.738Z,7.10
2022-12-12T11:21:02.893Z,13.13
2022-12-12T11:23:36.947Z,13.38
2022-12-12T11:26:14.365Z,8.13
2022-12-12T11:29:07.084Z,9.95
2022-12-12T11:31:40.335Z,10.45
2022-12-12T11:34:14.527Z,10.02
2022-12-12T11:36:47.712Z,10.55
2022-12-12T11:39:28.868Z,7.53
2022-12-12T11:42:03.489Z,9.00
2022-12-12T11:44:37.642Z,10.45
2022-12-12T11:47:19.535Z,9.32
2022-12-12T11:49:56.111Z,13.75
2022-12-12T11:52:30.147Z,12.65
2022-12-12T11:55:03.300Z,7.93
2022-12-12T11:57:58.953Z,11.80
2022-12-12T12:00:45.599Z,10.90
2022-12-12T12:03:27.819Z,15.70
2022-12-12T12:06:13.888Z,8.82
2022-12-12T12:09:01.820Z,13.55
2022-12-12T12:11:34.297Z,13.52
2022-12-12T12:14:19.385Z,12.52
2022-12-12T12:16:52.264Z,12.02
2022-12-12T12:19:44.068Z,10.27
2022-12-12T12:22:19.584Z,8.43
2022-12-12T12:25:09.174Z,13.30
2022-12-12T12:28:01.193Z,11.27
2022-12-12T12:30:40.374Z,12.85
2022-12-12T12:33:15.014Z,11.83
2022-12-12T12:36:00.751Z,16.70
2022-12-12T12:38:35.166Z,22.52
2022-12-12T12:41:10.861Z,14.00
2022-12-12T12:43:49.475Z,12.57
2022-12-12T12:46:29.963Z,10.82
2022-12-12T12:49:27.258Z,23.98
2022-12-12T12:52:07.750Z,16.00
2022-12-12T12:54:41.896Z,15.30
2022-12-12T12:57:28.249Z,15.95
2022-12-12T13:00:05.873Z,16.92
2022-12-12T13:02:47.687Z,23.45
2022-12-12T13:05:25.803Z,11.75
2022-12-12T13:08:02.988Z,16.10
2022-12-12T13:10:37.635Z,14.25
2022-12-12T13:13:15.842Z,16.95
2022-12-12T13:15:53.481Z,12.60
2022-12-12T13:18:33.505Z,21.50
2022-12-12T13:21:23.846Z,10.90
2022-12-12T13:24:08.170Z,11.45
2022-12-12T13:26:46.567Z,11.00
2022-12-12T13:29:25.687Z,18.15
2022-12-12T13:32:09.361Z,15.50
2022-12-12T13:34:45.252Z,9.90
2022-12-12T13:37:19.722Z,15.32
2022-12-12T13:40:04.976Z,17.42
2022-12-12T13:42:51.851Z,17.20
2022-12-12T13:45:39.885Z,8.45
2022-12-12T13:48:35.822Z,11.45
2022-12-12T13:51:27.660Z,10.85
2022-12-12T13:54:13.133Z,14.43
2022-12-12T13:56:47.977Z,11.95
2022-12-12T13:59:23.583Z,12.02
2022-12-12T14:01:59.415Z,8.65
2022-12-12T14:04:34.725Z,11.15
2022-12-12T14:07:14.687Z,11.90
2022-12-12T14:09:49.897Z,9.43
2022-12-12T14:12:31.518Z,8.30
2022-12-12T14:15:05.224Z,10.10
2022-12-12T14:17:42.878Z,12.57
2022-12-12T14:20:48.387Z,8.20
2022-12-12T14:23:26.330Z,13.02
2022-12-12T14:26:00.269Z,8.75
2022-12-12T14:28:34.060Z,7.35
2022-12-12T14:31:17.486Z,13.18
2022-12-12T14:33:56.613Z,6.63
2022-12-12T14:36:39.565Z,7.70
2022-12-12T14:39:15.457Z,10.68
2022-12-12T14:41:48.393Z,12.57
2022-12-12T14:44:36.077Z,15.43
2022-12-12T14:47:15.840Z,8.43
2022-12-12T14:50:07.787Z,11.57
2022-12-12T14:52:41.117Z,8.38
2022-12-12T14:55:15.590Z,11.25
2022-12-12T14:57:49.087Z,6.55
2022-12-12T15:00:22.082Z,13.45
2022-12-12T15:02:54.903Z,9.80
2022-12-12T15:05:27.995Z,14.57
2022-12-12T15:08:00.519Z,8.73
2022-12-12T15:10:33.631Z,10.43
2022-12-12T15:13:15.476Z,9.43
2022-12-12T15:15:50.202Z,8.73
2022-12-12T15:18:23.530Z,17.23
2022-12-12T15:20:57.755Z,12.63
2022-12-12T15:23:30.341Z,7.05
2022-12-12T15:26:03.332Z,7.55
2022-12-12T15:28:35.854Z,8.30
2022-12-12T15:31:13.729Z,6.68
2022-12-12T15:33:47.612Z,8.65
2022-12-12T15:36:24.363Z,6.97
2022-12-12T15:39:09.256Z,9.63
2022-12-12T15:41:43.691Z,4.90
2022-12-12T15:44:17.843Z,8.05
2022-12-12T15:46:50.883Z,9.63
2022-12-12T15:49:43.629Z,7.80
2022-12-12T15:52:19.546Z,7.35
2022-12-12T15:54:54.135Z,5.88
2022-12-12T15:57:29.006Z,17.35
2022-12-12T16:00:04.279Z,8.77
2022-12-12T16:02:37.547Z,7.30
2022-12-12T16:05:19.300Z,7.15
2022-12-12T16:07:52.219Z,5.43
2022-12-12T16:10:25.139Z,7.05
2022-12-12T16:12:59.678Z,9.82
2022-12-12T16:15:35.221Z,11.18
2022-12-12T16:18:29.147Z,9.18
2022-12-12T16:21:01.799Z,7.15
2022-12-12T16:23:40.640Z,8.95
2022-12-12T16:26:13.148Z,7.97
2022-12-12T16:28:46.056Z,13.38
2022-12-12T16:31:18.944Z,7.70
2022-12-12T16:33:51.958Z,11.95
2022-12-12T16:36:24.460Z,5.32
2022-12-12T16:38:57.438Z,8.27
2022-12-12T16:41:30.049Z,6.65
2022-12-12T16:44:02.964Z,10.68
2022-12-12T16:46:35.507Z,14.48
2022-12-12T16:49:14.928Z,8.32
2022-12-12T16:51:47.913Z,7.82
2022-12-12T16:54:20.882Z,10.90
2022-12-12T16:56:54.374Z,9.93
2022-12-12T16:59:27.462Z,8.70
2022-12-12T17:02:00.249Z,10.55
2022-12-12T17:04:33.186Z,7.40
2022-12-12T17:07:08.318Z,13.15
2022-12-12T17:09:41.366Z,13.90
2022-12-12T17:12:15.663Z,9.13
2022-12-12T17:14:48.588Z,12.15
2022-12-12T17:17:21.647Z,16.65
2022-12-12T17:19:54.622Z,9.15
2022-12-12T17:22:27.332Z,4.93
2022-12-12T17:25:00.238Z,9.45
2022-12-12T17:27:32.782Z,16.13
2022-12-12T17:30:07.491Z,6.80
2022-12-12T17:32:40.060Z,8.05
2022-12-12T17:35:13.635Z,12.00
2022-12-12T17:37:49.343Z,6.53
2022-12-12T17:40:22.287Z,5.50
2022-12-12T17:42:54.847Z,8.30
2022-12-12T17:45:28.005Z,10.50
2022-12-12T17:48:00.988Z,10.02
2022-12-12T17:50:39.914Z,7.65
2022-12-12T17:53:15.071Z,7.15
2022-12-12T17:55:51.395Z,6.50
2022-12-12T17:58:29.701Z,6.15
2022-12-12T18:01:13.094Z,7.40
2022-12-12T18:03:45.929Z,9.73
2022-12-12T18:06:20.611Z,7.45
2022-12-12T18:08:53.690Z,17.17
2022-12-12T18:11:28.537Z,11.32
2022-12-12T18:14:01.745Z,10.02
2022-12-12T18:16:35.831Z,14.73
2022-12-12T18:19:08.934Z,7.70
2022-12-12T18:24:34.587Z,11.45
2022-12-12T18:27:08.054Z,8.48
2022-12-12T18:29:42.526Z,11.05
2022-12-12T18:32:16.022Z,11.30
2022-12-12T18:34:48.659Z,11.45
2022-12-12T18:37:21.540Z,10.32
2022-12-12T18:39:54.305Z,8.82
2022-12-12T18:42:27.833Z,3.90
2022-12-12T18:45:00.539Z,7.22
2022-12-12T18:47:34.834Z,7.15
2022-12-12T18:50:10.262Z,7.60
2022-12-12T18:52:43.315Z,5.88
2022-12-12T18:55:16.033Z,10.50
2022-12-12T18:57:49.115Z,15.65
2022-12-12T19:00:21.766Z,13.77
2022-12-12T19:02:54.660Z,20.77
2022-12-12T19:05:27.628Z,21.02
2022-12-12T19:08:00.547Z,15.48
2022-12-12T19:10:34.455Z,5.18
2022-12-12T19:13:07.636Z,7.40
2022-12-12T19:15:40.204Z,10.05
2022-12-12T19:18:13.110Z,9.40
2022-12-12T19:20:45.741Z,8.25
2022-12-12T19:23:22.948Z,10.77
2022-12-12T19:25:55.561Z,8.93
2022-12-12T19:28:28.814Z,13.95
2022-12-12T19:31:06.089Z,14.27
2022-12-12T19:33:39.091Z,10.07
2022-12-12T19:36:19.193Z,11.25
2022-12-12T19:38:52.750Z,11.75
2022-12-12T19:41:27.937Z,12.05
2022-12-12T19:44:04.981Z,5.88
2022-12-12T19:46:37.533Z,8.73
2022-12-12T19:49:11.735Z,6.78
2022-12-12T19:51:45.617Z,5.65
2022-12-12T19:54:20.343Z,4.35
2022-12-12T19:56:52.975Z,9.45
2022-12-12T19:59:25.876Z,5.65
2022-12-12T20:02:00.479Z,12.00
2022-12-12T20:04:33.711Z,11.98
2022-12-12T20:07:06.182Z,12.10
2022-12-12T20:09:39.297Z,7.72
2022-12-12T20:12:11.861Z,9.25
2022-12-12T20:14:44.864Z,15.02
2022-12-12T20:17:18.956Z,7.13
2022-12-12T20:19:52.479Z,8.73
2022-12-12T20:22:25.287Z,11.73
2022-12-12T20:24:58.217Z,13.60
2022-12-12T20:27:30.874Z,10.75
2022-12-12T20:30:04.371Z,11.82
2022-12-12T20:32:37.054Z,9.55
2022-12-12T20:35:11.999Z,10.10
2022-12-12T20:37:44.551Z,7.70
2022-12-12T20:40:17.696Z,5.78
2022-12-12T20:42:57.154Z,10.45
2022-12-12T20:45:36.156Z,13.20
2022-12-12T20:48:08.941Z,8.35
2022-12-12T20:50:42.071Z,6.55
2022-12-12T20:53:14.607Z,11.65
2022-12-12T20:55:47.572Z,12.73
2022-12-12T20:58:20.091Z,12.05
2022-12-12T21:00:53.047Z,10.90
2022-12-12T21:03:25.815Z,8.35
2022-12-12T21:06:00.549Z,6.55
2022-12-12T21:08:33.203Z,9.38
2022-12-12T21:11:06.654Z,5.60
2022-12-12T21:13:41.142Z,7.03
2022-12-12T21:16:19.955Z,7.50
2022-12-12T21:18:56.663Z,7.80
2022-12-12T21:21:32.163Z,13.90
2022-12-12T21:24:05.061Z,6.07
2022-12-12T21:26:38.129Z,12.32
2022-12-12T21:29:11.277Z,9.55
2022-12-12T21:31:50.349Z,8.60
2022-12-12T21:34:23.811Z,6.32
2022-12-12T21:36:56.992Z,10.30
2022-12-12T21:39:30.759Z,15.23
2022-12-12T21:42:03.715Z,10.02
2022-12-12T21:44:38.968Z,6.63
2022-12-12T21:47:15.951Z,8.00
2022-12-12T21:49:48.511Z,7.10
2022-12-12T21:52:22.060Z,9.73
2022-12-12T21:54:54.546Z,10.00
2022-12-12T21:57:27.622Z,9.10
2022-12-12T22:00:00.239Z,7.15
2022-12-12T22:02:33.201Z,8.18
2022-12-12T22:05:06.057Z,12.73
2022-12-12T22:07:38.934Z,8.07
2022-12-12T22:10:11.720Z,7.90
2022-12-12T22:12:57.524Z,5.38
2022-12-12T22:15:30.293Z,5.78
2022-12-12T22:18:03.156Z,7.70
2022-12-12T22:20:36.290Z,11.23
2022-12-12T22:23:09.321Z,6.00
2022-12-12T22:25:41.804Z,5.78
2022-12-12T22:28:14.718Z,7.90
2022-12-12T22:30:47.744Z,6.85
2022-12-12T22:33:20.700Z,10.52
2022-12-12T22:35:54.980Z,7.90
2022-12-12T22:38:27.963Z,7.65
2022-12-12T22:41:00.490Z,11.68
2022-12-12T22:43:33.650Z,8.00
2022-12-12T22:46:07.361Z,9.52
2022-12-12T22:48:40.339Z,8.18
2022-12-12T22:51:16.593Z,8.02
2022-12-12T22:53:49.503Z,8.68
2022-12-12T22:56:22.007Z,7.35
2022-12-12T22:58:55.536Z,8.52
2022-12-12T23:01:29.206Z,6.95
2022-12-12T23:04:02.554Z,7.95
2022-12-12T23:06:35.981Z,6.03
2022-12-12T23:09:14.529Z,4.38
2022-12-12T23:11:47.122Z,9.23
2022-12-12T23:14:23.049Z,5.38
2022-12-12T23:16:56.130Z,9.07
2022-12-12T23:19:29.266Z,14.73
2022-12-12T23:22:01.791Z,5.75
2022-12-12T23:24:34.766Z,12.82
2022-12-12T23:27:07.301Z,13.43
2022-12-12T23:29:40.282Z,13.80
2022-12-12T23:32:12.813Z,6.25
2022-12-12T23:34:45.781Z,13.52
2022-12-12T23:37:18.273Z,7.32
2022-12-12T23:39:52.346Z,8.13
2022-12-12T23:42:24.761Z,9.73
2022-12-12T23:44:57.734Z,9.27
2022-12-12T23:47:30.261Z,8.00
2022-12-12T23:50:03.239Z,6.10
2022-12-12T23:52:35.715Z,11.57
2022-12-12T23:55:08.865Z,10.25
2022-12-12T23:57:41.790Z,6.65
